首页
METAR-TAF:

METAR-TAF

机场 :

博兹曼机场

博兹曼, 蒙大拿州, 美国

纬度: 45-47-17N, 经度: 111-09-39W, 海拔: 1364米

当前天气观测

该预报发布于19分钟前的19:56 UTC
风速14节,风向西转西南,有时为21节阵风
温度 16°C
湿度 25%
气压 1012 hPa
能見度: 16.1公里
天空无云

METAR: KBZN 071956Z 24014G21KT 10SM CLR 16/M04 A2987 RMK AO2 SLP102 T01561044

时间: 14:15 (20:15 UTC)

预报

该预报发布于2小时和55分钟前的17:20 UTC
预报有效从07日的 18点(UTC)到 08日的 24点(UTC)
风速14节,风向西,有时为22节阵风
能見度: 10公里
散云层高于4500英尺
多云层高于25000英尺
从 07日的 2200点(UTC)
风速19节,风向西,有时为29节阵风
能見度: 10公里
散云层高于6000英尺
多云层高于12000英尺
从 08日的 0500点(UTC)
风速10节,风向西
能見度: 10公里
少量云层高于3000英尺
散云层高于25000英尺

TAF: KBZN 071720Z 0718/0824 27014G22KT P6SM SCT045 BKN250 FM072200 27019G29KT P6SM SCT060 BKN120 FM080500 28010KT P6SM FEW030 SCT250

超过4000个机场的气象观测和天气预报(METAR&TAF报告)。

可查询的气象台以黄色和红色小点在地图上表示。

将鼠标移到小点上方,可查看气象台名称。

然后点击查看天气观测和预报。

如需切换地图:点击带黑十字的绿色按钮放大地图;点击带横线的绿色按钮缩小地图;或者点击绿色箭头查看邻近地区的地图。


METAR-TAF: